Time;durP1;ratioP1;P1;durP2;ratioP2;P2;SDS_P1;SDS_P2;PMS_P1;PMS_P2;Temp;Humidity;BMP_temperature;BMP_pressure;BME280_temperature;BME280_humidity;BME280_pressure;Samples;Min_cycle;Max_cycle;Signal;HPM_P1;HPM_P2
2022/05/08 00:04:15;;;;;;;13.82;8.82;;;;;;;12.33;100.00;102605.88;10458475;28;20064;-69
2022/05/08 00:09:18;;;;;;;15.18;8.35;;;;;;;12.89;100.00;102609.91;10457688;28;20047;-69
2022/05/08 00:14:20;;;;;;;12.80;7.88;;;;;;;12.91;100.00;102611.59;10456798;28;20411;-68
2022/05/08 00:19:22;;;;;;;14.85;9.25;;;;;;;12.14;100.00;102601.28;10457851;28;20048;-69
2022/05/08 00:24:25;;;;;;;17.17;8.70;;;;;;;11.79;100.00;102605.06;10439261;28;20056;-69
2022/05/08 00:29:27;;;;;;;15.95;8.70;;;;;;;12.13;100.00;102615.28;10457373;28;20044;-68
2022/05/08 00:34:29;;;;;;;11.50;8.48;;;;;;;11.60;100.00;102618.81;10456455;28;20423;-69
2022/05/08 00:39:35;;;;;;;15.35;8.73;;;;;;;11.76;100.00;102613.91;10456268;28;20381;-69
2022/05/08 00:44:37;;;;;;;13.00;7.90;;;;;;;11.75;100.00;102609.56;10456537;28;20044;-69
2022/05/08 00:49:40;;;;;;;14.68;8.55;;;;;;;12.30;100.00;102606.81;10457037;28;20060;-68
2022/05/08 00:54:42;;;;;;;16.15;7.60;;;;;;;12.15;100.00;102599.50;10438800;28;20060;-68
2022/05/08 00:59:45;;;;;;;10.45;7.95;;;;;;;11.79;100.00;102603.31;10456429;28;20053;-68
2022/05/08 01:04:47;;;;;;;15.82;8.75;;;;;;;11.88;100.00;102610.88;10439086;28;20060;-69
2022/05/08 01:09:50;;;;;;;13.40;7.97;;;;;;;11.85;100.00;102603.09;10456249;28;20044;-69
2022/05/08 01:15:14;;;;;;;20.35;8.38;;;;;;;11.45;100.00;102601.78;10438623;28;20124;-68
2022/05/08 01:20:16;;;;;;;20.15;9.00;;;;;;;11.81;100.00;102605.88;10438202;28;20396;-68
2022/05/08 01:25:19;;;;;;;13.15;9.55;;;;;;;11.77;100.00;102615.63;10455744;28;20084;-68
2022/05/08 01:30:22;;;;;;;17.60;10.27;;;;;;;11.51;100.00;102624.34;10455481;28;20408;-68
2022/05/08 01:35:25;;;;;;;13.98;8.27;;;;;;;11.40;100.00;102626.44;10454945;28;20412;-68
2022/05/08 01:40:28;;;;;;;24.10;8.93;;;;;;;11.49;100.00;102620.91;10446410;28;20056;-68
2022/05/08 01:45:31;;;;;;;21.05;8.75;;;;;;;11.47;100.00;102628.81;10463291;28;20503;-68
2022/05/08 01:50:33;;;;;;;16.90;8.25;;;;;;;11.75;100.00;102627.94;10445441;28;20049;-68
2022/05/08 01:55:35;;;;;;;20.30;8.73;;;;;;;11.74;100.00;102625.38;10463282;28;20049;-68
2022/05/08 02:00:38;;;;;;;18.70;8.73;;;;;;;11.70;100.00;102632.47;10462299;28;20056;-68
2022/05/08 02:05:42;;;;;;;19.58;9.55;;;;;;;11.02;100.00;102637.22;10445566;28;20059;-69
2022/05/08 02:10:45;;;;;;;15.65;7.97;;;;;;;11.04;100.00;102635.38;10480001;22;20147;-61
2022/05/08 02:15:47;;;;;;;20.58;8.95;;;;;;;11.23;100.00;102637.44;10504260;28;20049;-61
2022/05/08 02:20:50;;;;;;;17.35;7.55;;;;;;;11.57;100.00;102639.88;10503246;28;20403;-61
2022/05/08 02:25:52;;;;;;;18.33;7.38;;;;;;;10.88;100.00;102652.50;10503197;28;20506;-61
2022/05/08 02:30:54;;;;;;;22.58;7.72;;;;;;;11.44;100.00;102643.81;10502821;28;20430;-61
2022/05/08 02:35:57;;;;;;;19.20;7.30;;;;;;;10.72;100.00;102650.28;10503475;28;20048;-61
2022/05/08 02:40:59;;;;;;;21.45;8.40;;;;;;;10.72;100.00;102645.06;10503112;28;20051;-61
2022/05/08 02:46:02;;;;;;;16.17;5.93;;;;;;;11.01;100.00;102648.63;10502471;28;20055;-61
2022/05/08 02:51:05;;;;;;;24.70;7.07;;;;;;;10.81;100.00;102649.19;10501890;28;20049;-61
2022/05/08 03:01:29;;;;;;;22.73;6.73;;;;;;;10.71;100.00;102651.22;10502487;28;20044;-61
2022/05/08 03:06:31;;;;;;;20.25;5.70;;;;;;;10.99;100.00;102650.41;10501656;28;20064;-61
2022/05/08 03:11:35;;;;;;;22.02;6.35;;;;;;;11.00;99.49;102651.28;10501674;28;20053;-61
2022/05/08 03:16:38;;;;;;;28.35;6.95;;;;;;;10.86;99.19;102649.91;10501080;28;20403;-61
2022/05/08 03:21:40;;;;;;;21.10;5.60;;;;;;;10.70;98.04;102646.88;10501235;28;20045;-65
2022/05/08 03:26:43;;;;;;;13.30;5.07;;;;;;;11.01;98.60;102658.22;10501595;28;20048;-66
2022/05/08 03:31:46;;;;;;;32.60;6.25;;;;;;;10.55;98.69;102652.53;10501211;28;20051;-64
2022/05/08 03:36:48;;;;;;;32.53;6.03;;;;;;;10.63;98.02;102649.72;10500646;28;20056;-65
2022/05/08 03:41:51;;;;;;;17.50;5.90;;;;;;;10.62;96.23;102648.84;10500775;28;20041;-65
2022/05/08 03:46:53;;;;;;;16.13;5.82;;;;;;;10.47;95.94;102657.13;10500493;28;20055;-66
2022/05/08 03:51:55;;;;;;;20.60;5.25;;;;;;;10.53;97.65;102652.56;10500261;28;20482;-66
2022/05/08 03:56:58;;;;;;;17.88;5.10;;;;;;;10.61;95.92;102662.84;10499259;28;20048;-65
2022/05/08 04:02:00;;;;;;;17.38;4.38;;;;;;;10.83;94.56;102662.25;10498332;28;20483;-65
2022/05/08 04:07:03;;;;;;;18.65;5.05;;;;;;;10.89;95.21;102662.06;10499836;28;20136;-65
2022/05/08 04:12:05;;;;;;;18.98;5.47;;;;;;;10.48;95.80;102672.78;10498640;28;20053;-65
2022/05/08 04:17:08;;;;;;;26.27;6.18;;;;;;;10.59;94.84;102672.50;10499302;28;20048;-66
2022/05/08 04:27:31;;;;;;;17.58;5.53;;;;;;;10.57;93.68;102672.56;10498801;28;20479;-65
2022/05/08 04:32:33;;;;;;;21.10;4.57;;;;;;;10.66;95.03;102678.41;10497494;28;20049;-65
2022/05/08 04:37:35;;;;;;;24.95;4.93;;;;;;;10.63;93.90;102673.28;10497905;28;20479;-65
2022/05/08 04:42:39;;;;;;;22.95;5.45;;;;;;;10.72;93.16;102683.50;10496601;28;20044;-65
2022/05/08 04:47:41;;;;;;;18.15;4.80;;;;;;;10.37;94.84;102688.81;10498744;28;20059;-65
2022/05/08 04:52:44;;;;;;;24.48;5.53;;;;;;;10.20;96.12;102701.44;10498420;28;20049;-65
2022/05/08 04:57:46;;;;;;;20.15;5.20;;;;;;;10.05;97.32;102707.91;10497730;28;20506;-65
2022/05/08 05:02:48;;;;;;;26.00;5.30;;;;;;;10.15;95.08;102708.53;10498221;28;20048;-65
2022/05/08 05:07:51;;;;;;;21.77;5.45;;;;;;;10.17;96.36;102698.88;10498261;28;20048;-64
2022/05/08 05:12:54;;;;;;;17.92;5.10;;;;;;;10.29;95.77;102709.06;10500127;28;20515;-65
2022/05/08 05:17:58;;;;;;;19.48;4.55;;;;;;;10.20;95.50;102717.13;10505185;28;20052;-65
2022/05/08 05:23:01;;;;;;;21.50;4.55;;;;;;;10.54;94.16;102717.16;10464120;28;20389;-65
2022/05/08 05:28:03;;;;;;;25.85;6.65;;;;;;;10.12;95.04;102729.53;10464015;28;20053;-65
2022/05/08 05:33:15;;;;;;;24.35;5.68;;;;;;;10.48;96.13;102729.56;10468736;28;20060;-65
2022/05/08 05:38:17;;;;;;;16.27;4.78;;;;;;;10.35;94.99;102740.34;10505837;28;20048;-65
2022/05/08 05:43:20;;;;;;;16.88;4.65;;;;;;;10.65;94.48;102729.13;10504314;28;20044;-65
2022/05/08 05:48:22;;;;;;;24.73;5.93;;;;;;;10.63;93.21;102746.63;10505100;28;20052;-65
2022/05/08 05:53:24;;;;;;;27.25;5.75;;;;;;;10.27;92.84;102750.13;10504755;28;20052;-65
2022/05/08 05:58:27;;;;;;;27.45;5.70;;;;;;;10.93;89.35;102737.94;10504275;28;20045;-65
2022/05/08 06:03:29;;;;;;;20.23;5.68;;;;;;;10.46;93.71;102757.56;10502837;28;20395;-65
2022/05/08 06:08:32;;;;;;;23.80;4.97;;;;;;;10.78;93.37;102754.09;10503227;28;20063;-65
2022/05/08 06:13:34;;;;;;;19.52;4.53;;;;;;;10.86;92.42;102767.84;10503708;28;20053;-65
2022/05/08 06:18:41;;;;;;;23.85;5.35;;;;;;;10.79;91.87;102758.41;10504117;28;20049;-65
2022/05/08 06:23:44;;;;;;;29.00;6.28;;;;;;;11.08;89.31;102759.38;10501785;28;20411;-65
2022/05/08 06:28:46;;;;;;;20.02;5.07;;;;;;;11.26;92.27;102757.97;10502487;28;20055;-65
2022/05/08 06:33:49;;;;;;;19.55;5.10;;;;;;;11.11;91.56;102767.13;10502065;28;20040;-65
2022/05/08 06:38:51;;;;;;;19.52;5.22;;;;;;;10.69;91.03;102783.13;10502795;28;20048;-65
2022/05/08 06:43:54;;;;;;;19.73;5.15;;;;;;;11.13;90.69;102770.59;10502269;28;20045;-65
2022/05/08 06:48:56;;;;;;;22.95;4.60;;;;;;;11.83;87.26;102779.88;10502205;28;20059;-65
2022/05/08 06:53:58;;;;;;;25.23;7.90;;;;;;;11.06;86.66;102780.41;10502259;28;20045;-65
2022/05/08 07:04:23;;;;;;;18.13;4.22;;;;;;;11.82;83.23;102791.31;10502479;28;20052;-65
2022/05/08 07:09:25;;;;;;;20.95;5.07;;;;;;;12.31;79.49;102786.28;10500710;28;20053;-66
2022/05/08 07:14:28;;;;;;;25.15;5.68;;;;;;;12.52;77.51;102790.81;10500837;28;20048;-66
2022/05/08 07:19:31;;;;;;;17.20;5.28;;;;;;;13.17;73.47;102786.78;10500280;28;20487;-65
2022/05/08 07:24:33;;;;;;;19.15;4.97;;;;;;;13.87;73.05;102792.94;10500811;28;20502;-65
2022/05/08 07:29:36;;;;;;;19.92;4.53;;;;;;;13.79;71.68;102792.38;10500283;28;20487;-64
2022/05/08 07:39:59;;;;;;;12.13;4.07;;;;;;;13.32;70.90;102789.78;10500193;28;20395;-66
2022/05/08 07:45:04;;;;;;;16.33;4.00;;;;;;;13.60;71.82;102805.41;10498848;28;20056;-64
2022/05/08 07:50:07;;;;;;;19.73;4.22;;;;;;;14.64;66.56;102800.38;10499466;28;20483;-64
2022/05/08 07:55:09;;;;;;;17.00;4.05;;;;;;;15.63;62.38;102797.72;10499707;28;20136;-64
2022/05/08 08:00:12;;;;;;;16.05;3.40;;;;;;;15.21;60.98;102805.78;10498847;28;20052;-64
2022/05/08 08:05:14;;;;;;;13.00;3.95;;;;;;;14.86;63.44;102808.19;10498304;28;20057;-64
2022/05/08 08:10:17;;;;;;;11.00;3.33;;;;;;;16.10;60.94;102799.91;10500234;28;20051;-64
2022/05/08 08:15:19;;;;;;;17.52;3.83;;;;;;;15.32;60.05;102812.34;10498655;28;20061;-64
2022/05/08 08:20:22;;;;;;;12.73;3.67;;;;;;;14.22;59.12;102808.22;10496859;28;20393;-64
2022/05/08 08:25:24;;;;;;;17.38;3.85;;;;;;;16.83;58.46;102803.28;10497674;28;20048;-64
2022/05/08 08:30:27;;;;;;;19.63;5.00;;;;;;;16.32;58.90;102810.25;10497043;28;20045;-64
2022/05/08 08:35:30;;;;;;;12.00;2.88;;;;;;;16.94;57.28;102809.81;10498342;28;20052;-64
2022/05/08 08:40:37;;;;;;;16.63;3.15;;;;;;;15.84;56.91;102811.75;10498415;28;20051;-64
2022/05/08 08:51:20;;;;;;;10.30;3.03;;;;;;;16.50;56.05;102817.28;10448337;28;20049;-64
2022/05/08 08:56:29;;;;;;;15.23;4.85;;;;;;;16.06;58.82;102827.41;10496219;28;20123;-64
2022/05/08 09:01:43;;;;;;;16.25;4.13;;;;;;;16.57;57.34;102815.16;10495659;28;20044;-64
2022/05/08 09:06:46;;;;;;;12.80;3.35;;;;;;;17.80;54.64;102813.09;10497036;28;20057;-64
2022/05/08 09:11:49;;;;;;;12.45;3.70;;;;;;;17.93;54.85;102814.13;10493577;28;20098;-64
2022/05/08 09:16:54;;;;;;;13.73;3.40;;;;;;;17.68;53.83;102811.97;10496796;28;20411;-64
2022/05/08 09:22:00;;;;;;;11.30;3.65;;;;;;;18.35;53.23;102817.91;10496345;28;20052;-64
2022/05/08 09:27:10;;;;;;;9.13;3.47;;;;;;;18.50;52.34;102815.31;10497535;28;20048;-65
2022/05/08 09:32:39;;;;;;;18.60;4.13;;;;;;;18.49;53.16;102813.59;10497118;28;20498;-64
2022/05/08 09:37:53;;;;;;;13.45;4.43;;;;;;;17.86;49.44;102803.97;10496003;28;20049;-64
2022/05/08 09:42:55;;;;;;;14.10;3.92;;;;;;;18.62;49.30;102813.72;10497597;28;20098;-64
2022/05/08 09:47:58;;;;;;;10.32;3.35;;;;;;;19.38;47.75;102791.41;10494320;28;20045;-65
2022/05/08 09:53:00;;;;;;;10.75;3.35;;;;;;;19.66;52.11;102793.16;10494779;28;20048;-64
2022/05/08 09:58:03;;;;;;;10.18;3.67;;;;;;;18.30;50.64;102795.25;10479415;28;20052;-64
2022/05/08 10:03:09;;;;;;;11.95;4.20;;;;;;;19.31;50.86;102788.28;10504058;28;20040;-64
2022/05/08 10:08:16;;;;;;;10.68;3.20;;;;;;;20.15;48.00;102791.78;10503162;28;20053;-64
2022/05/08 10:13:56;;;;;;;11.02;3.42;;;;;;;20.01;45.31;102782.91;10502842;28;20052;-65
2022/05/08 10:19:19;;;;;;;8.40;2.80;;;;;;;20.50;46.48;102784.06;10504340;28;20052;-65
2022/05/08 10:24:31;;;;;;;11.05;2.63;;;;;;;20.19;42.70;102782.63;10503199;28;20394;-65
2022/05/08 10:29:33;;;;;;;10.02;2.67;;;;;;;20.34;46.61;102778.94;10502640;28;20052;-64
2022/05/08 10:34:37;;;;;;;9.50;2.67;;;;;;;21.11;43.24;102780.78;10502165;28;20045;-65
2022/05/08 10:39:41;;;;;;;9.77;2.95;;;;;;;20.09;44.20;102779.75;10503468;28;20053;-65
2022/05/08 10:44:43;;;;;;;8.00;3.35;;;;;;;20.60;43.62;102776.31;10503149;28;20056;-65
2022/05/08 10:49:46;;;;;;;7.90;2.85;;;;;;;20.86;42.83;102761.19;10502434;28;20479;-65
2022/05/08 10:55:02;;;;;;;5.28;2.58;;;;;;;22.98;40.06;102754.38;10502610;28;20048;-65
2022/05/08 11:00:07;;;;;;;8.52;2.90;;;;;;;23.14;40.76;102757.56;10501519;28;20098;-65
2022/05/08 11:05:17;;;;;;;6.78;2.65;;;;;;;22.15;39.04;102766.13;10502152;28;20049;-65
2022/05/08 11:10:24;;;;;;;5.15;2.10;;;;;;;23.30;40.13;102745.63;10500363;28;20055;-66
2022/05/08 11:15:33;;;;;;;7.95;2.38;;;;;;;23.61;38.63;102757.34;10500558;28;20403;-65
2022/05/08 11:20:43;;;;;;;8.70;2.47;;;;;;;23.21;37.10;102749.91;10489593;28;20131;-65
2022/05/08 11:25:50;;;;;;;8.37;2.83;;;;;;;22.16;36.13;102752.69;10500677;28;20059;-65
2022/05/08 11:30:54;;;;;;;4.95;2.00;;;;;;;22.61;39.14;102755.47;10500165;28;20407;-65
2022/05/08 11:36:04;;;;;;;7.90;2.67;;;;;;;23.59;36.62;102758.41;10500325;28;20399;-69
2022/05/08 11:41:11;;;;;;;6.73;2.83;;;;;;;22.89;39.26;102747.94;10499310;28;20482;-65
2022/05/08 11:46:19;;;;;;;6.50;2.00;;;;;;;23.60;37.87;102738.75;10500631;28;20055;-64
2022/05/08 11:51:26;;;;;;;9.35;2.28;;;;;;;21.66;37.79;102738.66;10500067;28;20051;-64
2022/05/08 11:56:33;;;;;;;6.43;2.25;;;;;;;22.10;38.36;102739.78;10497134;28;20040;-64
2022/05/08 12:01:41;;;;;;;9.40;2.40;;;;;;;23.01;35.63;102730.09;10498866;28;20051;-64
2022/05/08 12:07:01;;;;;;;5.00;1.90;;;;;;;24.47;35.64;102725.19;10498210;28;20565;-64
2022/05/08 12:12:29;;;;;;;7.35;2.65;;;;;;;23.51;34.30;102719.81;10498972;28;20049;-64
2022/05/08 12:17:44;;;;;;;11.00;2.92;;;;;;;23.44;33.88;102715.13;10499900;28;20048;-64
2022/05/08 12:23:06;;;;;;;6.32;2.03;;;;;;;24.78;34.17;102701.09;10498360;28;20080;-64
2022/05/08 12:28:10;;;;;;;7.10;2.10;;;;;;;24.34;34.75;102703.13;10499274;28;20045;-64
2022/05/08 12:33:12;;;;;;;6.32;2.00;;;;;;;23.82;35.88;102695.03;10498821;28;20045;-64
2022/05/08 12:38:15;;;;;;;6.10;2.10;;;;;;;23.42;36.65;102698.34;10499248;28;20048;-64
2022/05/08 12:43:17;;;;;;;7.28;2.10;;;;;;;24.12;35.69;102688.91;10497206;28;20047;-64
2022/05/08 12:48:21;;;;;;;10.88;2.08;;;;;;;24.79;35.39;102694.75;10498461;28;20052;-65
2022/05/08 12:53:23;;;;;;;8.02;2.88;;;;;;;22.13;35.80;102694.22;10498474;28;20077;-65
2022/05/08 13:03:47;;;;;;;7.57;2.58;;;;;;;24.05;34.25;102682.41;10497686;28;20045;-66
2022/05/08 13:08:49;;;;;;;5.88;1.70;;;;;;;24.88;32.66;102677.03;10497900;28;20044;-65
2022/05/08 13:13:51;;;;;;;6.90;1.98;;;;;;;24.07;34.88;102672.41;10496589;28;20056;-65
2022/05/08 13:18:54;;;;;;;7.03;2.22;;;;;;;25.01;31.63;102664.22;10497233;28;20117;-65
2022/05/08 13:23:56;;;;;;;10.25;2.20;;;;;;;23.74;34.84;102669.78;10496896;28;20486;-65
2022/05/08 13:28:59;;;;;;;5.05;1.55;;;;;;;24.52;34.23;102657.84;10495846;28;20048;-65
2022/05/08 13:34:02;;;;;;;7.35;2.15;;;;;;;23.61;31.70;102661.09;10500882;28;20475;-65
2022/05/08 13:39:04;;;;;;;5.18;1.83;;;;;;;24.38;34.52;102657.22;10505378;28;20056;-65
2022/05/08 13:44:07;;;;;;;9.65;2.00;;;;;;;24.08;34.28;102650.03;10505154;28;20055;-65
2022/05/08 13:49:09;;;;;;;5.53;1.98;;;;;;;25.88;32.14;102641.94;10503593;28;20052;-65
2022/05/08 13:54:12;;;;;;;10.95;1.65;;;;;;;25.12;32.88;102639.16;10503706;28;20036;-65
2022/05/08 13:59:15;;;;;;;5.38;2.05;;;;;;;23.92;34.26;102631.75;10503908;28;20059;-65
2022/05/08 14:04:17;;;;;;;6.32;2.17;;;;;;;22.22;36.56;102637.47;10503660;28;20047;-65
2022/05/08 14:09:19;;;;;;;8.27;2.08;;;;;;;24.07;32.36;102625.13;10503469;28;20048;-65
2022/05/08 14:14:27;;;;;;;4.97;1.58;;;;;;;23.66;34.88;102628.63;10502665;28;20086;-65
2022/05/08 14:19:35;;;;;;;5.68;1.75;;;;;;;24.60;33.32;102620.56;10487962;28;20062;-65
2022/05/08 14:24:37;;;;;;;4.07;1.70;;;;;;;24.51;35.02;102616.84;10502424;28;20055;-65
2022/05/08 14:29:39;;;;;;;5.30;2.03;;;;;;;25.19;35.04;102610.78;10474263;22;20053;-64
2022/05/08 14:40:04;;;;;;;4.28;1.90;;;;;;;24.69;31.47;102605.50;10462205;28;20074;-64
2022/05/08 14:45:07;;;;;;;5.20;1.75;;;;;;;24.16;31.03;102598.53;10460628;28;20045;-64
2022/05/08 14:50:09;;;;;;;5.10;1.90;;;;;;;20.39;35.07;102598.59;10459947;28;20072;-65
2022/05/08 14:55:12;;;;;;;7.22;1.67;;;;;;;23.70;34.22;102597.97;10456430;28;20059;-64
2022/05/08 15:00:17;;;;;;;5.40;1.90;;;;;;;23.53;33.42;102592.22;10436172;28;20064;-64
2022/05/08 15:05:19;;;;;;;7.30;2.25;;;;;;;24.43;31.99;102580.03;10453842;28;20041;-65
2022/05/08 15:10:22;;;;;;;5.18;1.67;;;;;;;24.96;31.85;102589.59;10435356;28;20496;-64
2022/05/08 15:15:24;;;;;;;5.20;1.75;;;;;;;23.23;32.80;102586.78;10453361;28;20496;-64
2022/05/08 15:20:27;;;;;;;2.75;1.67;;;;;;;23.06;33.13;102583.69;10453697;28;20064;-64
2022/05/08 15:25:30;;;;;;;3.40;1.27;;;;;;;21.49;33.44;102585.34;10453144;28;20056;-64
2022/05/08 15:30:33;;;;;;;3.58;1.42;;;;;;;20.51;33.45;102572.94;10452295;28;20045;-64
2022/05/08 15:35:36;;;;;;;5.55;2.00;;;;;;;22.54;34.44;102574.56;10443200;28;20056;-64
2022/05/08 15:40:38;;;;;;;7.25;1.80;;;;;;;21.78;34.07;102574.28;10449766;28;20056;-64
2022/05/08 15:45:41;;;;;;;8.20;1.60;;;;;;;20.67;35.71;102567.38;10452013;28;20373;-64
2022/05/08 15:50:44;;;;;;;5.00;2.30;;;;;;;21.59;34.35;102566.84;10447480;28;20424;-65
2022/05/08 15:55:46;;;;;;;4.15;1.70;;;;;;;21.67;35.68;102557.31;10450675;28;20084;-65
2022/05/08 16:00:49;;;;;;;4.10;1.60;;;;;;;21.68;36.08;102550.16;10451361;28;20407;-65
2022/05/08 16:05:52;;;;;;;7.15;2.00;;;;;;;20.20;36.90;102552.97;10450537;28;20054;-65
2022/05/08 16:10:58;;;;;;;3.80;1.42;;;;;;;20.73;38.75;102558.94;10450272;28;20510;-64
2022/05/08 16:26:43;;;;;;;4.20;1.77;;;;;;;20.70;37.81;102545.03;10450943;28;20056;-64
2022/05/08 16:31:45;;;;;;;6.72;1.92;;;;;;;19.85;38.48;102545.66;10450292;28;20268;-64
2022/05/08 16:36:48;;;;;;;5.00;1.80;;;;;;;20.13;39.01;102541.91;10420084;28;20053;-64
2022/05/08 16:41:50;;;;;;;6.65;1.73;;;;;;;20.36;39.01;102548.28;10451151;28;20059;-64
2022/05/08 16:46:52;;;;;;;3.70;1.63;;;;;;;20.47;36.29;102541.31;10434433;28;20053;-64
2022/05/08 16:51:55;;;;;;;5.43;1.67;;;;;;;19.93;36.92;102534.50;10409242;28;20053;-64
2022/05/08 16:56:57;;;;;;;7.85;1.48;;;;;;;20.27;37.20;102540.94;10409969;28;20299;-64
2022/05/08 17:02:00;;;;;;;5.22;1.65;;;;;;;19.85;37.36;102543.88;10434685;28;20053;-65
2022/05/08 17:07:03;;;;;;;4.10;1.20;;;;;;;20.08;37.88;102545.88;10449516;28;20480;-64
2022/05/08 17:12:05;;;;;;;5.35;1.50;;;;;;;19.85;38.86;102550.97;10452443;28;20558;-64
2022/05/08 17:17:08;;;;;;;6.93;1.80;;;;;;;19.21;40.42;102546.38;10456246;28;20056;-64
2022/05/08 17:22:11;;;;;;;5.10;2.20;;;;;;;19.08;39.22;102545.47;10438137;28;20037;-64
2022/05/08 17:32:34;;;;;;;9.45;1.40;;;;;;;19.02;37.59;102541.44;10454929;28;20407;-64
2022/05/08 17:37:39;;;;;;;5.85;1.48;;;;;;;19.19;38.93;102544.78;10455425;28;20179;-64
2022/05/08 17:42:42;;;;;;;5.82;1.40;;;;;;;19.00;38.89;102553.13;10455238;28;20069;-64
2022/05/08 17:47:45;;;;;;;5.80;1.45;;;;;;;18.69;39.67;102540.03;10438776;28;20132;-64
2022/05/08 17:52:47;;;;;;;3.72;1.30;;;;;;;18.59;39.44;102549.50;10455315;28;20047;-64
2022/05/08 17:57:49;;;;;;;4.78;1.77;;;;;;;18.55;39.41;102550.66;10455715;28;20053;-64
2022/05/08 18:08:13;;;;;;;;;;;;;;;17.92;42.19;102542.16;10451703;28;20504;-64
2022/05/08 18:13:15;;;;;;;6.80;2.60;;;;;;;17.90;42.29;102544.03;10431661;28;19935;-64
2022/05/08 18:18:18;;;;;;;5.18;2.22;;;;;;;17.73;42.57;102549.47;10450086;28;20427;-64
2022/05/08 18:23:20;;;;;;;11.20;1.95;;;;;;;17.32;43.84;102560.72;10454385;28;20053;-64
2022/05/08 18:28:23;;;;;;;8.68;2.92;;;;;;;17.38;44.20;102555.06;10439008;28;20068;-64
2022/05/08 18:33:26;;;;;;;4.38;1.73;;;;;;;17.13;44.18;102561.78;10454944;28;20386;-64
2022/05/08 18:38:28;;;;;;;4.10;1.52;;;;;;;16.99;45.96;102564.34;10455908;28;20051;-64
2022/05/08 18:43:31;;;;;;;4.45;1.67;;;;;;;16.78;47.15;102567.25;10455826;28;20049;-64
2022/05/08 18:48:34;;;;;;;3.15;1.50;;;;;;;16.60;48.44;102576.19;10455910;28;20071;-64
2022/05/08 18:53:36;;;;;;;5.28;2.22;;;;;;;16.18;49.99;102567.84;10414768;28;20053;-64
2022/05/08 18:58:38;;;;;;;6.43;2.67;;;;;;;15.49;52.88;102574.84;10413822;28;20488;-64
2022/05/08 19:03:41;;;;;;;7.95;2.55;;;;;;;15.52;52.02;102576.50;10418732;28;20041;-63
2022/05/08 19:08:43;;;;;;;5.57;2.40;;;;;;;15.06;55.79;102571.66;10454852;28;20053;-63
2022/05/08 19:13:49;;;;;;;5.53;2.22;;;;;;;14.88;56.59;102583.09;10455363;28;20049;-63
2022/05/08 19:18:51;;;;;;;4.78;1.58;;;;;;;14.71;57.40;102586.53;10454626;28;20414;-63
2022/05/08 19:23:53;;;;;;;3.80;1.30;;;;;;;14.26;59.53;102588.53;10453911;28;20060;-63
2022/05/08 19:28:56;;;;;;;6.47;1.85;;;;;;;14.19;59.50;102593.22;10452235;28;20060;-63
2022/05/08 19:39:19;;;;;;;6.80;1.63;;;;;;;13.88;61.83;102620.00;10451690;28;20045;-63
2022/05/08 19:44:23;;;;;;;2.50;1.45;;;;;;;13.59;62.12;102622.09;10451409;28;20053;-63
2022/05/08 19:49:26;;;;;;;4.80;1.58;;;;;;;13.40;62.79;102629.88;10445700;28;20057;-63
2022/05/08 19:54:29;;;;;;;8.95;1.92;;;;;;;13.15;63.66;102637.84;10436095;28;20518;-63
2022/05/08 19:59:31;;;;;;;6.25;2.28;;;;;;;13.12;63.32;102646.69;10409159;28;20522;-63
2022/05/08 20:04:34;;;;;;;3.85;1.88;;;;;;;12.95;63.38;102649.97;10424552;28;20056;-63
2022/05/08 20:09:36;;;;;;;8.60;2.10;;;;;;;12.90;63.66;102649.28;10450618;28;20053;-63
2022/05/08 20:14:39;;;;;;;5.55;2.53;;;;;;;12.70;65.75;102643.94;10450429;28;20052;-63
2022/05/08 20:19:42;;;;;;;7.10;2.22;;;;;;;12.77;65.46;102654.16;10432532;28;20056;-63
2022/05/08 20:24:46;;;;;;;6.97;2.58;;;;;;;12.49;66.22;102648.19;10449532;28;20052;-63
2022/05/08 20:29:49;;;;;;;8.25;2.88;;;;;;;12.20;68.15;102655.31;10416159;28;1073599;-64
2022/05/08 20:34:51;;;;;;;6.05;2.30;;;;;;;12.14;69.06;102656.41;10457505;28;20052;-63
2022/05/08 20:39:53;;;;;;;8.10;3.08;;;;;;;11.96;69.14;102660.50;10457535;28;20049;-63
2022/05/08 20:44:56;;;;;;;7.28;2.50;;;;;;;12.17;68.54;102669.44;10454801;28;20045;-63
2022/05/08 20:49:58;;;;;;;5.18;1.95;;;;;;;12.18;68.51;102671.13;10456471;28;20053;-63
2022/05/08 20:55:01;;;;;;;7.88;1.95;;;;;;;12.03;71.09;102675.13;10455452;28;20045;-63
2022/05/08 21:00:04;;;;;;;5.05;2.05;;;;;;;12.08;69.27;102672.38;10457237;28;20049;-63
2022/05/08 21:10:29;;;;;;;8.33;1.77;;;;;;;11.54;71.65;102684.56;10456923;28;20049;-63
2022/05/08 21:15:31;;;;;;;7.15;2.30;;;;;;;11.82;69.97;102694.22;10456742;28;20052;-63
2022/05/08 21:20:34;;;;;;;5.65;2.83;;;;;;;11.55;71.26;102696.81;10456624;28;20072;-63
2022/05/08 21:25:39;;;;;;;7.72;2.97;;;;;;;11.37;72.90;102690.34;10438649;28;20064;-63
2022/05/08 21:30:41;;;;;;;8.48;2.35;;;;;;;11.32;72.98;102695.72;10455875;28;20059;-63
2022/05/08 21:35:44;;;;;;;5.82;2.97;;;;;;;11.27;73.64;102702.88;10456416;28;20053;-63
2022/05/08 21:40:46;;;;;;;5.68;2.20;;;;;;;11.06;74.52;102706.13;10455613;28;20480;-63
2022/05/08 21:45:48;;;;;;;7.05;2.85;;;;;;;11.19;73.97;102709.25;10456109;28;20045;-63
2022/05/08 21:50:51;;;;;;;8.10;3.20;;;;;;;11.33;70.78;102699.19;10456032;28;20052;-63
2022/05/08 21:55:53;;;;;;;8.68;2.40;;;;;;;11.37;71.80;102686.88;10444946;28;20045;-62
2022/05/08 22:00:57;;;;;;;6.75;3.25;;;;;;;11.36;72.59;102695.63;10463199;28;20399;-62
2022/05/08 22:05:59;;;;;;;9.38;3.10;;;;;;;11.24;74.53;102696.88;10445937;28;20056;-62
2022/05/08 22:11:02;;;;;;;6.80;3.10;;;;;;;11.12;76.45;102696.31;10463424;28;20057;-62
2022/05/08 22:16:04;;;;;;;9.98;3.80;;;;;;;10.82;78.36;102697.22;10463169;28;20049;-62
2022/05/08 22:21:07;;;;;;;8.75;3.13;;;;;;;11.09;75.65;102703.41;10445254;28;20392;-63
2022/05/08 22:26:10;;;;;;;10.07;2.63;;;;;;;10.64;80.70;102711.66;10461936;28;20484;-63
2022/05/08 22:31:12;;;;;;;9.05;2.42;;;;;;;10.78;78.83;102702.53;10462583;28;20049;-63
2022/05/08 22:36:15;;;;;;;11.88;3.00;;;;;;;10.38;81.68;102706.22;10444761;28;20124;-63
2022/05/08 22:41:17;;;;;;;10.32;2.88;;;;;;;10.49;80.86;102705.06;10462139;28;20059;-63
2022/05/08 22:46:20;;;;;;;10.98;3.38;;;;;;;10.39;81.27;102710.56;10462393;28;20052;-63
2022/05/08 22:51:22;;;;;;;9.23;2.92;;;;;;;10.29;82.76;102708.19;10461747;28;20053;-63
2022/05/08 22:56:25;;;;;;;10.85;3.47;;;;;;;10.00;84.73;102708.03;10461034;28;20052;-63
2022/05/08 23:01:27;;;;;;;6.45;2.90;;;;;;;9.95;85.87;102715.13;10461396;28;20080;-63
2022/05/08 23:06:30;;;;;;;9.38;2.75;;;;;;;10.00;85.96;102718.50;10460046;28;20052;-63
2022/05/08 23:11:32;;;;;;;11.80;3.67;;;;;;;10.06;83.71;102714.88;10460791;28;20059;-63
2022/05/08 23:16:34;;;;;;;11.57;2.60;;;;;;;9.79;85.86;102709.41;10460184;28;20498;-62
2022/05/08 23:21:37;;;;;;;11.13;3.53;;;;;;;9.89;86.70;102723.13;10459961;28;20468;-62
2022/05/08 23:26:39;;;;;;;11.63;3.03;;;;;;;9.82;87.55;102722.41;10460032;28;20056;-62
2022/05/08 23:31:41;;;;;;;10.32;3.30;;;;;;;9.71;89.38;102721.78;10460233;28;20048;-62
2022/05/08 23:36:44;;;;;;;10.77;3.15;;;;;;;9.62;90.60;102729.84;10459339;28;20455;-62
2022/05/08 23:41:46;;;;;;;13.88;4.07;;;;;;;9.81;88.83;102719.81;10441715;28;20056;-62
2022/05/08 23:46:48;;;;;;;8.70;4.03;;;;;;;9.57;91.17;102710.78;10458887;28;20045;-62
2022/05/08 23:51:51;;;;;;;10.68;3.28;;;;;;;9.74;90.52;102719.09;10458781;28;20407;-63
2022/05/08 23:56:54;;;;;;;9.10;2.97;;;;;;;9.53;91.88;102717.84;10459164;28;20048;-62
